Time;durP1;ratioP1;P1;durP2;ratioP2;P2;SDS_P1;SDS_P2;PMS_P1;PMS_P2;Temp;Humidity;BMP_temperature;BMP_pressure;BME280_temperature;BME280_humidity;BME280_pressure;Samples;Min_cycle;Max_cycle;Signal;HPM_P1;HPM_P2
2023/09/11 00:00:28;;;;;;;20.65;11.18;;;20.50;99.90;;;;;;6118219;23;20080;-71
2023/09/11 00:02:53;;;;;;;17.85;12.13;;;20.50;99.90;;;;;;6093141;23;20014;-70
2023/09/11 00:05:19;;;;;;;20.23;11.77;;;20.50;99.90;;;;;;6092462;23;20567;-71
2023/09/11 00:07:45;;;;;;;15.70;11.15;;;20.40;99.90;;;;;;6092345;23;20021;-71
2023/09/11 00:10:11;;;;;;;19.45;11.77;;;20.50;99.90;;;;;;6089753;23;20044;-70
2023/09/11 00:12:37;;;;;;;24.20;12.02;;;20.50;99.90;;;;;;6091685;23;20014;-71
2023/09/11 00:15:03;;;;;;;18.73;10.98;;;20.50;99.90;;;;;;6092320;23;20021;-70
2023/09/11 00:17:29;;;;;;;19.63;11.95;;;20.40;99.90;;;;;;6093635;23;20018;-70
2023/09/11 00:19:55;;;;;;;13.93;10.90;;;20.40;99.90;;;;;;6093075;23;20017;-71
2023/09/11 00:22:20;;;;;;;16.65;12.07;;;20.40;99.90;;;;;;6118194;23;20014;-71
2023/09/11 00:24:46;;;;;;;22.48;12.23;;;20.40;99.90;;;;;;6092560;23;20018;-70
2023/09/11 00:27:11;;;;;;;16.38;12.82;;;20.30;99.90;;;;;;6118763;23;20444;-70
2023/09/11 00:29:37;;;;;;;14.98;11.48;;;20.30;99.90;;;;;;6092546;23;20022;-70
2023/09/11 00:32:04;;;;;;;27.88;12.52;;;20.30;99.90;;;;;;6092284;23;20018;-71
2023/09/11 00:34:29;;;;;;;24.20;12.15;;;20.30;99.90;;;;;;6118304;23;20021;-70
2023/09/11 00:36:56;;;;;;;23.50;13.07;;;20.30;99.90;;;;;;6118607;23;20080;-70
2023/09/11 00:39:21;;;;;;;21.75;12.93;;;20.30;99.90;;;;;;6091887;23;20089;-70
2023/09/11 00:41:47;;;;;;;18.52;11.77;;;20.20;99.90;;;;;;6117924;23;20060;-71
2023/09/11 00:44:13;;;;;;;22.35;12.02;;;20.20;99.90;;;;;;6092392;23;20089;-71
2023/09/11 00:46:40;;;;;;;18.17;11.40;;;20.10;99.90;;;;;;6118359;23;20037;-70
2023/09/11 00:49:06;;;;;;;28.70;13.40;;;20.10;99.90;;;;;;6092177;23;20018;-71
2023/09/11 00:51:33;;;;;;;24.20;12.05;;;20.20;99.90;;;;;;6091697;23;20029;-71
2023/09/11 00:53:59;;;;;;;23.08;12.65;;;20.10;99.90;;;;;;6119940;23;20014;-71
2023/09/11 00:56:25;;;;;;;23.52;12.77;;;20.10;99.90;;;;;;6119634;23;20009;-70
2023/09/11 00:58:51;;;;;;;22.60;11.88;;;20.10;99.90;;;;;;6093864;23;20021;-70
2023/09/11 01:01:19;;;;;;;16.23;10.82;;;20.20;99.90;;;;;;6119502;23;20009;-70
2023/09/11 01:03:46;;;;;;;21.45;11.70;;;20.10;99.90;;;;;;6119675;23;20482;-70
2023/09/11 01:06:11;;;;;;;16.95;11.70;;;20.10;99.90;;;;;;6093676;23;20018;-71
2023/09/11 01:08:37;;;;;;;18.08;12.95;;;20.10;99.90;;;;;;6092565;23;20093;-70
2023/09/11 01:11:02;;;;;;;18.05;12.40;;;20.10;99.90;;;;;;6119102;23;20465;-71
2023/09/11 01:13:28;;;;;;;20.00;12.20;;;20.00;99.90;;;;;;6120070;23;20456;-70
2023/09/11 01:16:10;;;;;;;20.35;11.85;;;20.20;99.90;;;;;;6094329;23;20330;-70
2023/09/11 01:19:00;;;;;;;26.77;12.98;;;20.10;99.90;;;;;;6092554;23;20050;-71
2023/09/11 01:21:51;;;;;;;23.52;13.38;;;20.10;99.90;;;;;;6091163;23;20022;-70
2023/09/11 01:24:25;;;;;;;18.98;11.57;;;20.00;99.90;;;;;;6069128;23;20022;-70
2023/09/11 01:27:15;;;;;;;23.52;12.45;;;20.00;99.90;;;;;;6119188;23;20144;-71
2023/09/11 01:29:41;;;;;;;20.85;11.75;;;20.00;99.90;;;;;;6119167;23;20014;-71
2023/09/11 01:32:08;;;;;;;19.15;11.18;;;20.00;99.90;;;;;;6118530;23;20089;-71
2023/09/11 01:34:34;;;;;;;15.70;12.32;;;20.00;99.90;;;;;;6093724;23;20014;-71
2023/09/11 01:36:59;;;;;;;24.85;13.88;;;19.90;99.90;;;;;;6118858;23;20017;-70
2023/09/11 01:39:25;;;;;;;18.73;12.52;;;19.90;99.90;;;;;;6093334;23;20022;-71
2023/09/11 01:41:55;;;;;;;20.85;12.10;;;19.90;99.90;;;;;;6092565;23;20018;-71
2023/09/11 01:44:27;;;;;;;19.23;12.13;;;19.80;99.90;;;;;;6119789;23;20063;-71
2023/09/11 01:46:55;;;;;;;17.42;11.52;;;19.80;99.90;;;;;;6119991;23;20029;-71
2023/09/11 01:49:22;;;;;;;16.05;12.70;;;19.80;99.90;;;;;;6119640;23;20028;-70
2023/09/11 01:51:51;;;;;;;20.92;12.30;;;19.80;99.90;;;;;;6118016;23;20543;-71
2023/09/11 01:54:17;;;;;;;18.00;11.40;;;19.80;99.90;;;;;;6119812;23;20337;-71
2023/09/11 01:56:43;;;;;;;16.48;11.88;;;19.70;99.90;;;;;;6093538;23;20018;-71
2023/09/11 01:59:08;;;;;;;24.17;12.30;;;19.70;99.90;;;;;;6093187;23;20029;-71
2023/09/11 02:01:34;;;;;;;27.25;11.68;;;19.70;99.90;;;;;;6119712;23;20073;-71
2023/09/11 02:04:00;;;;;;;22.52;12.98;;;19.70;99.90;;;;;;6119544;23;20097;-71
2023/09/11 02:06:25;;;;;;;18.80;11.55;;;19.70;99.90;;;;;;6092647;23;20018;-71
2023/09/11 02:08:51;;;;;;;21.17;12.95;;;19.60;99.90;;;;;;6119092;23;20094;-71
2023/09/11 02:11:16;;;;;;;15.85;12.30;;;19.60;99.90;;;;;;6094779;23;20294;-71
2023/09/11 02:13:42;;;;;;;27.95;13.13;;;19.60;99.90;;;;;;6120133;23;20089;-71
2023/09/11 02:16:07;;;;;;;19.20;11.30;;;19.60;99.90;;;;;;6119594;23;20021;-71
2023/09/11 02:18:33;;;;;;;19.17;11.57;;;19.80;99.90;;;;;;6117879;23;20024;-71
2023/09/11 02:20:58;;;;;;;23.02;12.65;;;19.50;99.90;;;;;;6068922;23;20500;-71
2023/09/11 02:23:24;;;;;;;18.38;11.43;;;19.70;99.90;;;;;;6092548;23;20085;-71
2023/09/11 02:25:51;;;;;;;21.90;12.88;;;19.60;99.90;;;;;;6118739;23;20068;-71
2023/09/11 02:28:16;;;;;;;24.83;12.70;;;19.50;99.90;;;;;;6119526;23;20010;-71
2023/09/11 02:30:42;;;;;;;18.85;11.50;;;19.50;99.90;;;;;;6092458;23;20105;-71
2023/09/11 02:33:07;;;;;;;20.50;12.50;;;19.70;99.90;;;;;;6092493;23;20021;-71
2023/09/11 02:35:33;;;;;;;18.33;11.57;;;19.60;99.90;;;;;;6119433;23;20467;-71
2023/09/11 02:37:59;;;;;;;17.05;11.93;;;19.60;99.90;;;;;;6119248;23;20348;-71
2023/09/11 02:40:24;;;;;;;22.33;11.35;;;19.70;99.90;;;;;;6090274;23;20629;-71
2023/09/11 02:42:50;;;;;;;17.98;12.38;;;19.60;99.90;;;;;;6092217;23;20021;-71
2023/09/11 02:45:16;;;;;;;21.55;13.13;;;19.50;99.90;;;;;;6093154;23;20010;-71
2023/09/11 02:47:41;;;;;;;18.70;11.93;;;19.50;99.90;;;;;;6093471;23;20437;-71
2023/09/11 02:50:07;;;;;;;22.10;13.20;;;19.50;99.90;;;;;;6118369;23;20659;-71
2023/09/11 02:52:33;;;;;;;22.35;12.35;;;19.40;99.90;;;;;;6119096;23;20056;-71
2023/09/11 02:54:59;;;;;;;20.83;12.98;;;19.40;99.90;;;;;;6093355;23;20018;-71
2023/09/11 02:57:25;;;;;;;22.33;12.88;;;19.40;99.90;;;;;;6118406;23;20017;-71
2023/09/11 02:59:55;;;;;;;23.48;13.70;;;19.40;99.90;;;;;;6117751;23;20885;-71
2023/09/11 03:02:21;;;;;;;26.15;14.00;;;19.40;99.90;;;;;;6119139;23;20017;-71
2023/09/11 03:04:50;;;;;;;27.52;13.55;;;19.40;99.90;;;;;;6093372;23;20017;-71
2023/09/11 03:07:17;;;;;;;25.73;12.88;;;19.50;99.90;;;;;;6092947;23;20017;-71
2023/09/11 03:09:44;;;;;;;21.60;12.45;;;19.40;99.90;;;;;;6091768;23;20018;-71
2023/09/11 03:12:10;;;;;;;21.48;12.52;;;19.50;99.90;;;;;;6068401;23;20048;-71
2023/09/11 03:14:36;;;;;;;25.42;14.30;;;19.50;99.90;;;;;;6118917;23;20076;-71
2023/09/11 03:17:01;;;;;;;19.23;12.35;;;19.60;99.90;;;;;;6091463;23;20085;-71
2023/09/11 03:19:27;;;;;;;20.67;12.00;;;19.50;99.90;;;;;;6118603;23;20018;-71
2023/09/11 03:21:54;;;;;;;23.10;12.27;;;19.50;99.90;;;;;;6093081;23;20025;-71
2023/09/11 03:24:20;;;;;;;26.58;12.35;;;19.50;99.90;;;;;;6092951;23;20022;-71
2023/09/11 03:26:48;;;;;;;23.33;12.75;;;19.50;99.90;;;;;;6118207;23;20069;-72
2023/09/11 03:29:15;;;;;;;20.55;12.25;;;19.50;99.90;;;;;;6118539;23;20020;-71
2023/09/11 03:31:41;;;;;;;17.63;12.13;;;19.50;99.90;;;;;;6118089;23;20017;-71
2023/09/11 03:34:06;;;;;;;29.88;13.10;;;19.60;99.90;;;;;;6119024;23;20014;-71
2023/09/11 03:36:32;;;;;;;25.63;12.60;;;19.60;99.90;;;;;;6118779;23;20049;-71
2023/09/11 03:38:58;;;;;;;26.35;14.15;;;19.60;99.90;;;;;;6117782;23;20018;-71
2023/09/11 03:41:23;;;;;;;24.08;12.75;;;19.50;99.90;;;;;;6119253;23;20053;-71
2023/09/11 03:43:49;;;;;;;18.15;12.18;;;19.50;99.90;;;;;;6093478;23;20445;-71
2023/09/11 03:46:15;;;;;;;20.95;12.32;;;19.60;99.90;;;;;;6092661;23;20018;-71
2023/09/11 03:48:41;;;;;;;23.15;12.30;;;19.60;99.90;;;;;;6118419;23;20025;-71
2023/09/11 03:51:07;;;;;;;22.23;12.45;;;19.50;99.90;;;;;;6118833;23;20071;-71
2023/09/11 03:53:33;;;;;;;22.95;12.13;;;19.50;99.90;;;;;;6118545;23;20017;-71
2023/09/11 03:55:59;;;;;;;19.40;11.38;;;19.60;99.90;;;;;;6118555;23;20434;-71
2023/09/11 03:58:25;;;;;;;17.67;12.70;;;19.50;99.90;;;;;;6118254;23;20049;-71
2023/09/11 04:00:50;;;;;;;25.27;11.95;;;19.50;99.90;;;;;;6067288;23;20014;-71
2023/09/11 04:03:16;;;;;;;25.10;12.30;;;19.40;99.90;;;;;;6117863;23;20379;-71
2023/09/11 04:05:42;;;;;;;19.35;11.80;;;19.40;99.90;;;;;;6118774;23;20006;-71
2023/09/11 04:08:08;;;;;;;28.38;14.15;;;19.50;99.90;;;;;;6093745;23;20022;-71
2023/09/11 04:10:33;;;;;;;26.98;11.95;;;19.50;99.90;;;;;;6091665;23;20022;-71
2023/09/11 04:12:59;;;;;;;23.02;12.35;;;19.40;99.90;;;;;;6091623;23;20032;-71
2023/09/11 04:15:25;;;;;;;18.00;12.07;;;19.40;99.90;;;;;;6116343;23;20098;-71
2023/09/11 04:17:54;;;;;;;24.30;13.25;;;19.20;99.90;;;;;;6117400;23;20026;-71
2023/09/11 04:20:21;;;;;;;19.90;11.60;;;19.30;99.90;;;;;;6089962;23;20022;-71
2023/09/11 04:22:46;;;;;;;24.08;12.68;;;19.30;99.90;;;;;;6117904;23;20071;-71
2023/09/11 04:25:12;;;;;;;22.77;13.70;;;19.30;99.90;;;;;;6068795;23;20085;-71
2023/09/11 04:27:38;;;;;;;23.88;13.82;;;19.30;99.90;;;;;;6118967;23;20046;-70
2023/09/11 04:30:04;;;;;;;21.25;11.95;;;19.30;99.90;;;;;;6090976;23;20053;-71
2023/09/11 04:32:31;;;;;;;21.40;12.27;;;19.20;99.90;;;;;;6115859;23;20029;-71
2023/09/11 04:34:57;;;;;;;29.05;12.38;;;19.20;99.90;;;;;;6119113;23;20024;-71
2023/09/11 04:37:22;;;;;;;20.83;12.68;;;19.10;99.90;;;;;;6118437;23;20041;-71
2023/09/11 04:39:48;;;;;;;22.63;11.55;;;19.20;99.90;;;;;;6090171;23;20093;-71
2023/09/11 04:42:14;;;;;;;20.60;12.10;;;19.30;99.90;;;;;;6116985;23;20014;-71
2023/09/11 04:44:40;;;;;;;19.98;13.13;;;19.10;99.90;;;;;;6118936;23;20006;-71
2023/09/11 04:47:06;;;;;;;26.00;13.75;;;19.20;99.90;;;;;;6092356;23;20613;-71
2023/09/11 04:49:32;;;;;;;25.55;12.90;;;19.10;99.90;;;;;;6117494;23;20022;-71
2023/09/11 04:51:57;;;;;;;24.42;13.95;;;19.10;99.90;;;;;;6088752;23;20021;-71
2023/09/11 04:54:23;;;;;;;19.10;12.20;;;19.30;99.90;;;;;;6117831;23;20025;-71
2023/09/11 04:56:48;;;;;;;21.35;11.85;;;19.10;99.90;;;;;;6090671;23;20348;-71
2023/09/11 04:59:14;;;;;;;19.95;12.20;;;19.20;99.90;;;;;;6091298;23;20073;-71
2023/09/11 05:01:41;;;;;;;26.85;14.05;;;19.10;99.90;;;;;;6117087;23;20456;-71
2023/09/11 05:04:07;;;;;;;21.30;13.35;;;19.10;99.90;;;;;;6117688;23;20124;-71
2023/09/11 05:06:32;;;;;;;19.05;12.68;;;19.10;99.90;;;;;;6116910;23;20045;-71
2023/09/11 05:08:59;;;;;;;19.52;12.75;;;19.10;99.90;;;;;;6090745;23;20441;-70
2023/09/11 05:11:24;;;;;;;24.73;12.43;;;19.20;99.90;;;;;;6090585;23;20021;-71
2023/09/11 05:13:50;;;;;;;27.55;14.13;;;19.20;99.90;;;;;;6091738;23;20026;-70
2023/09/11 05:16:17;;;;;;;29.52;12.88;;;19.20;99.90;;;;;;6117798;23;20014;-70
2023/09/11 05:18:44;;;;;;;26.73;13.32;;;19.30;99.90;;;;;;6091343;23;20504;-70
2023/09/11 05:21:10;;;;;;;20.80;12.50;;;19.30;99.90;;;;;;6090608;23;20109;-71
2023/09/11 05:23:36;;;;;;;24.83;14.63;;;19.30;99.90;;;;;;6118027;23;20098;-70
2023/09/11 05:26:03;;;;;;;19.92;12.73;;;19.40;99.90;;;;;;6117390;23;20014;-70
2023/09/11 05:28:29;;;;;;;20.90;13.25;;;19.40;99.90;;;;;;6090906;23;20068;-70
2023/09/11 05:30:54;;;;;;;20.45;12.70;;;19.50;99.90;;;;;;6115002;23;20022;-70
2023/09/11 05:33:20;;;;;;;21.77;12.18;;;19.50;99.90;;;;;;6091374;23;20022;-70
2023/09/11 05:35:45;;;;;;;21.15;12.57;;;19.60;99.90;;;;;;6116936;23;20459;-71
2023/09/11 05:38:11;;;;;;;33.30;14.35;;;19.60;99.90;;;;;;6088952;23;20725;-71
2023/09/11 05:40:37;;;;;;;28.98;12.85;;;19.80;99.90;;;;;;6117650;23;20468;-70
2023/09/11 05:43:03;;;;;;;22.48;11.45;;;19.80;99.90;;;;;;6093595;23;20098;-71
2023/09/11 05:45:28;;;;;;;23.20;12.82;;;20.00;99.90;;;;;;6117927;23;20448;-71
2023/09/11 05:47:54;;;;;;;26.92;12.50;;;20.10;99.90;;;;;;6119301;23;20018;-71
2023/09/11 05:50:19;;;;;;;24.05;12.15;;;20.30;99.90;;;;;;6117223;23;20507;-71
2023/09/11 05:52:45;;;;;;;17.27;11.77;;;20.40;99.90;;;;;;6119282;23;20049;-71
2023/09/11 05:55:11;;;;;;;21.25;11.43;;;20.60;99.90;;;;;;6118250;23;20018;-71
2023/09/11 05:57:36;;;;;;;19.95;10.88;;;20.80;99.90;;;;;;6118996;23;20014;-70
2023/09/11 06:00:09;;;;;;;24.35;10.45;;;21.20;99.90;;;;;;6091867;23;20026;-71
2023/09/11 06:02:35;;;;;;;22.00;11.52;;;22.00;99.90;;;;;;6092853;23;20018;-71
2023/09/11 06:05:00;;;;;;;20.83;9.55;;;22.90;99.90;;;;;;6091734;23;20452;-71
2023/09/11 06:07:26;;;;;;;22.63;10.13;;;23.70;99.90;;;;;;6091958;23;20073;-71
2023/09/11 06:09:51;;;;;;;19.88;10.40;;;24.50;99.90;;;;;;6094241;23;20018;-71
2023/09/11 06:12:17;;;;;;;18.23;9.52;;;25.20;99.90;;;;;;6094231;23;20079;-71
2023/09/11 06:14:43;;;;;;;21.33;10.40;;;25.70;99.90;;;;;;6119733;23;20022;-71
2023/09/11 06:17:08;;;;;;;18.23;9.63;;;26.00;99.90;;;;;;6120030;23;20046;-71
2023/09/11 06:19:34;;;;;;;23.25;10.95;;;25.90;99.90;;;;;;6093556;23;20021;-71
2023/09/11 06:21:59;;;;;;;22.17;10.52;;;25.90;99.90;;;;;;6119077;23;20029;-71
2023/09/11 06:24:25;;;;;;;22.08;9.98;;;25.80;99.90;;;;;;6120140;23;20014;-71
2023/09/11 06:27:03;;;;;;;20.48;10.43;;;26.30;99.90;;;;;;6120395;23;20010;-71
2023/09/11 06:29:29;;;;;;;17.83;9.50;;;27.30;99.90;;;;;;6118964;23;20088;-71
2023/09/11 06:31:54;;;;;;;16.08;9.15;;;28.20;99.90;;;;;;6120040;23;20433;-71
2023/09/11 06:34:20;;;;;;;19.92;11.23;;;28.40;99.90;;;;;;6093730;23;20091;-71
2023/09/11 06:36:46;;;;;;;24.60;10.95;;;28.50;99.90;;;;;;6119830;23;20042;-71
2023/09/11 06:39:11;;;;;;;24.50;11.80;;;28.10;99.90;;;;;;6119282;23;20497;-71
2023/09/11 06:41:37;;;;;;;27.17;10.93;;;28.00;99.90;;;;;;6094182;23;20017;-71
2023/09/11 06:44:03;;;;;;;22.40;10.80;;;28.10;99.90;;;;;;6119335;23;20006;-71
2023/09/11 06:46:29;;;;;;;23.95;10.82;;;27.80;99.90;;;;;;6119310;23;20437;-71
2023/09/11 06:48:55;;;;;;;23.17;10.95;;;27.30;99.90;;;;;;6119021;23;20072;-71
2023/09/11 06:51:20;;;;;;;23.10;11.27;;;27.30;99.90;;;;;;6093416;23;20018;-72
2023/09/11 06:53:48;;;;;;;29.60;10.77;;;27.70;99.90;;;;;;6120068;23;20628;-71
2023/09/11 06:56:13;;;;;;;26.90;11.80;;;27.80;99.90;;;;;;6119680;23;20085;-71
2023/09/11 06:58:39;;;;;;;18.33;11.25;;;27.60;99.90;;;;;;6119378;23;20106;-71
2023/09/11 07:01:04;;;;;;;24.45;11.38;;;27.20;99.90;;;;;;6094296;23;20101;-71
2023/09/11 07:03:30;;;;;;;25.92;12.07;;;26.90;99.90;;;;;;6069794;23;20045;-70
2023/09/11 07:05:55;;;;;;;23.80;12.23;;;26.60;99.90;;;;;;6093923;23;20014;-71
2023/09/11 07:08:21;;;;;;;25.48;12.20;;;26.20;99.90;;;;;;6119592;23;20093;-71
2023/09/11 07:10:50;;;;;;;20.50;11.25;;;25.90;99.90;;;;;;6092745;23;20022;-71
2023/09/11 07:13:16;;;;;;;28.65;14.10;;;25.70;99.90;;;;;;6120375;23;20400;-71
2023/09/11 07:15:42;;;;;;;23.35;11.82;;;25.50;99.90;;;;;;6119707;23;20014;-71
2023/09/11 07:18:07;;;;;;;31.67;11.40;;;25.20;99.90;;;;;;6117534;23;20036;-71
2023/09/11 07:20:33;;;;;;;25.30;11.93;;;25.10;99.90;;;;;;6091251;23;20014;-71
2023/09/11 07:22:58;;;;;;;15.82;11.57;;;24.90;99.90;;;;;;6119228;23;20025;-71
2023/09/11 07:25:24;;;;;;;24.33;11.40;;;24.80;99.90;;;;;;6120052;23;20010;-71
2023/09/11 07:27:53;;;;;;;22.45;12.00;;;24.80;99.90;;;;;;6094557;23;20107;-71
2023/09/11 07:30:18;;;;;;;24.25;12.20;;;24.70;99.90;;;;;;6117430;23;20014;-71
2023/09/11 07:32:44;;;;;;;22.98;11.95;;;24.70;99.90;;;;;;6093779;23;20010;-71
2023/09/11 07:35:09;;;;;;;26.60;12.52;;;24.70;99.90;;;;;;6120038;23;20049;-71
2023/09/11 07:37:35;;;;;;;18.20;10.85;;;24.60;99.90;;;;;;6120353;23;20038;-71
2023/09/11 07:40:01;;;;;;;19.05;11.98;;;24.70;99.90;;;;;;6092967;23;20018;-71
2023/09/11 07:42:26;;;;;;;27.70;12.68;;;24.60;99.90;;;;;;6094060;23;20048;-71
2023/09/11 07:44:52;;;;;;;18.63;11.57;;;24.60;99.90;;;;;;6119617;23;20010;-71
2023/09/11 07:47:18;;;;;;;20.02;11.25;;;24.60;99.90;;;;;;6119170;23;20021;-71
2023/09/11 07:49:45;;;;;;;22.98;12.02;;;24.70;99.90;;;;;;6091121;23;20089;-71
2023/09/11 07:52:10;;;;;;;23.10;13.20;;;24.70;99.90;;;;;;6119335;23;20337;-71
2023/09/11 07:54:36;;;;;;;21.45;11.80;;;24.70;99.90;;;;;;6094197;23;20018;-71
2023/09/11 07:57:01;;;;;;;21.52;10.40;;;24.80;99.90;;;;;;6092620;23;20022;-71
2023/09/11 07:59:27;;;;;;;21.85;11.45;;;24.70;99.90;;;;;;6092206;23;20461;-71
2023/09/11 08:01:53;;;;;;;23.85;11.77;;;24.80;99.90;;;;;;6119127;23;20021;-71
2023/09/11 08:04:18;;;;;;;26.95;11.68;;;24.80;99.90;;;;;;6094091;23;20091;-71
2023/09/11 08:06:44;;;;;;;20.58;10.43;;;24.90;99.90;;;;;;6119008;23;20010;-71
2023/09/11 08:09:09;;;;;;;15.63;9.77;;;24.80;99.90;;;;;;6091865;23;20128;-71
2023/09/11 08:11:39;;;;;;;19.75;10.32;;;24.90;99.90;;;;;;6119298;23;20322;-71
2023/09/11 08:14:08;;;;;;;24.17;10.75;;;25.00;99.90;;;;;;6120372;23;20334;-71
2023/09/11 08:16:33;;;;;;;29.55;10.60;;;25.10;99.90;;;;;;6118921;23;20056;-71
2023/09/11 08:18:59;;;;;;;11.90;9.65;;;25.30;99.90;;;;;;6092943;23;20065;-71
2023/09/11 08:21:24;;;;;;;16.10;9.15;;;25.40;99.90;;;;;;6118787;23;20013;-71
2023/09/11 08:23:50;;;;;;;15.20;9.27;;;25.60;99.90;;;;;;6093392;23;20490;-71
2023/09/11 08:26:16;;;;;;;20.15;9.10;;;25.70;99.90;;;;;;6118453;23;20017;-71
2023/09/11 08:28:42;;;;;;;18.83;9.63;;;26.00;99.90;;;;;;6093006;23;20018;-71
2023/09/11 08:31:08;;;;;;;14.25;9.13;;;26.10;99.90;;;;;;6118900;23;20018;-71
2023/09/11 08:33:33;;;;;;;15.27;8.38;;;26.40;99.90;;;;;;6093947;23;20014;-70
2023/09/11 08:35:59;;;;;;;12.63;7.80;;;26.60;99.90;;;;;;6119322;23;20040;-70
2023/09/11 08:38:25;;;;;;;16.00;7.53;;;26.70;99.90;;;;;;6091991;23;20018;-71
2023/09/11 08:40:50;;;;;;;13.60;7.05;;;26.90;99.90;;;;;;6091990;23;20460;-71
2023/09/11 08:43:16;;;;;;;16.38;7.18;;;27.00;99.90;;;;;;6093165;23;20018;-72
2023/09/11 08:45:43;;;;;;;14.27;8.23;;;27.10;99.90;;;;;;6090712;23;20488;-71
2023/09/11 08:48:11;;;;;;;15.93;8.38;;;27.30;99.90;;;;;;6117380;23;20022;-71
2023/09/11 08:50:43;;;;;;;12.38;7.13;;;27.50;99.90;;;;;;6065784;23;20018;-72
2023/09/11 08:53:13;;;;;;;17.88;7.72;;;27.70;99.90;;;;;;6092205;23;20022;-71
2023/09/11 08:55:38;;;;;;;12.38;6.63;;;27.90;99.90;;;;;;6091365;23;20089;-71
2023/09/11 08:58:08;;;;;;;12.98;7.10;;;28.00;99.90;;;;;;6116990;23;20107;-71
2023/09/11 09:00:34;;;;;;;10.35;6.72;;;28.10;99.90;;;;;;6116950;23;20091;-72
2023/09/11 09:03:01;;;;;;;18.70;8.48;;;28.30;99.90;;;;;;6092183;23;20354;-71
2023/09/11 09:05:27;;;;;;;15.65;6.97;;;28.30;99.90;;;;;;6117068;23;20705;-72
2023/09/11 09:07:54;;;;;;;11.23;6.25;;;28.30;99.90;;;;;;6115464;23;20006;-72
2023/09/11 09:10:20;;;;;;;14.95;6.70;;;28.50;99.90;;;;;;6112761;23;20053;-71
2023/09/11 09:12:46;;;;;;;11.68;7.07;;;28.60;99.90;;;;;;6113096;23;20009;-71
2023/09/11 09:15:12;;;;;;;10.70;6.50;;;28.60;99.90;;;;;;6118057;23;20093;-72
2023/09/11 09:17:38;;;;;;;17.73;6.97;;;28.80;99.90;;;;;;6119173;23;20132;-71
2023/09/11 09:20:04;;;;;;;11.73;7.63;;;28.80;99.90;;;;;;6090295;23;20149;-72
2023/09/11 09:22:30;;;;;;;17.73;7.85;;;28.90;99.90;;;;;;6118560;23;20042;-72
2023/09/11 09:24:55;;;;;;;12.50;7.80;;;29.10;99.90;;;;;;6093248;23;20014;-71
2023/09/11 09:27:24;;;;;;;23.52;9.95;;;29.20;99.90;;;;;;6118192;23;20392;-71
2023/09/11 09:29:51;;;;;;;11.98;9.32;;;29.30;99.90;;;;;;6117406;23;20029;-71
2023/09/11 09:32:17;;;;;;;14.32;8.25;;;29.30;99.90;;;;;;6118100;23;20060;-71
2023/09/11 09:34:49;;;;;;;9.43;7.43;;;29.40;99.90;;;;;;6092325;23;20018;-71
2023/09/11 09:37:17;;;;;;;9.70;6.68;;;29.40;99.90;;;;;;6118134;23;20049;-72
2023/09/11 09:39:44;;;;;;;13.45;7.25;;;29.60;99.90;;;;;;6118210;23;20021;-72
2023/09/11 09:42:12;;;;;;;15.68;8.25;;;29.70;99.90;;;;;;6116876;23;20075;-71
2023/09/11 09:44:47;;;;;;;29.38;9.23;;;29.70;99.90;;;;;;6074822;23;1061621;-71
2023/09/11 09:47:19;;;;;;;11.75;7.13;;;29.80;99.90;;;;;;6119572;23;20029;-71
2023/09/11 09:49:50;;;;;;;14.20;7.30;;;29.90;99.90;;;;;;6070116;23;20018;-71
2023/09/11 09:52:20;;;;;;;16.73;7.22;;;30.00;99.90;;;;;;6094352;23;20032;-71
2023/09/11 09:54:54;;;;;;;15.32;7.15;;;30.00;99.90;;;;;;6120587;23;20101;-71
2023/09/11 09:57:21;;;;;;;;;;;30.00;99.90;;;;;;6093173;23;20021;-72
2023/09/11 09:59:52;;;;;;;9.05;7.05;;;30.10;99.90;;;;;;6092919;23;20300;-71
2023/09/11 10:02:23;;;;;;;14.65;7.75;;;30.10;99.90;;;;;;6118663;23;20702;-71
2023/09/11 10:04:53;;;;;;;13.93;6.78;;;30.30;99.90;;;;;;6094115;23;20022;-72
2023/09/11 10:07:38;;;;;;;9.38;7.10;;;30.30;99.90;;;;;;6119232;23;20081;-72
2023/09/11 10:10:24;;;;;;;16.13;8.33;;;30.40;99.90;;;;;;6118988;23;20054;-71
2023/09/11 10:13:11;;;;;;;13.68;8.90;;;30.40;99.90;;;;;;6094337;23;20253;-72
2023/09/11 10:15:39;;;;;;;12.80;9.13;;;30.40;99.90;;;;;;6120024;23;20016;-71
2023/09/11 10:18:06;;;;;;;16.52;9.00;;;30.30;99.90;;;;;;6094046;23;20081;-71
2023/09/11 10:20:32;;;;;;;13.30;7.60;;;30.40;99.90;;;;;;6119061;23;20715;-72
2023/09/11 10:23:03;;;;;;;12.43;8.38;;;30.40;99.90;;;;;;6094811;23;20128;-72
2023/09/11 10:25:33;;;;;;;11.07;8.50;;;30.50;99.90;;;;;;6094233;23;20041;-72
2023/09/11 10:28:05;;;;;;;17.40;8.65;;;30.50;99.90;;;;;;6120240;23;20021;-71
2023/09/11 10:30:59;;;;;;;13.10;8.68;;;30.50;99.90;;;;;;6092921;23;20068;-71
2023/09/11 10:33:26;;;;;;;13.80;7.90;;;30.50;99.90;;;;;;6094388;23;20022;-72
2023/09/11 10:35:58;;;;;;;20.55;9.93;;;30.50;99.90;;;;;;6093809;23;20073;-71
2023/09/11 10:38:30;;;;;;;14.68;9.73;;;30.50;99.90;;;;;;6093269;23;20052;-72
2023/09/11 10:40:57;;;;;;;15.90;8.93;;;30.50;99.90;;;;;;6092956;23;20022;-72
2023/09/11 10:43:23;;;;;;;14.32;7.93;;;30.50;99.90;;;;;;6119431;23;20014;-71
2023/09/11 10:45:50;;;;;;;10.18;6.72;;;30.60;99.90;;;;;;6093704;23;20348;-72
2023/09/11 10:48:30;;;;;;;14.20;7.13;;;30.60;99.90;;;;;;6120369;23;20345;-71
2023/09/11 10:50:57;;;;;;;8.98;7.50;;;30.80;99.90;;;;;;6119379;23;20013;-72
2023/09/11 10:53:29;;;;;;;12.40;8.93;;;30.80;99.90;;;;;;6120604;23;20479;-72
2023/09/11 10:55:58;;;;;;;12.90;9.45;;;30.80;99.90;;;;;;6120042;23;20096;-72
2023/09/11 10:58:25;;;;;;;13.57;9.00;;;30.80;99.90;;;;;;6092971;23;20089;-72
2023/09/11 11:00:53;;;;;;;11.52;7.95;;;30.80;99.90;;;;;;6093598;23;20081;-72
2023/09/11 11:03:19;;;;;;;16.75;8.63;;;30.80;99.90;;;;;;6094766;23;20445;-72
2023/09/11 11:05:45;;;;;;;13.05;9.23;;;30.80;99.90;;;;;;6120526;23;20068;-72
2023/09/11 11:08:11;;;;;;;11.52;8.85;;;30.80;99.90;;;;;;6094411;23;20014;-72
2023/09/11 11:10:40;;;;;;;17.38;8.73;;;30.80;99.80;;;;;;6119059;23;20472;-72
2023/09/11 11:13:08;;;;;;;17.80;10.05;;;30.80;99.50;;;;;;6117705;23;20010;-72
2023/09/11 11:15:34;;;;;;;16.38;10.18;;;30.80;99.60;;;;;;6119939;23;20041;-71
2023/09/11 11:18:24;;;;;;;10.90;8.68;;;31.00;99.90;;;;;;6093635;23;20444;-71
2023/09/11 11:21:04;;;;;;;15.35;10.13;;;31.10;99.90;;;;;;6118929;23;20460;-72
2023/09/11 11:23:32;;;;;;;11.68;7.32;;;31.10;99.20;;;;;;6120095;23;20014;-72
2023/09/11 11:26:09;;;;;;;14.75;7.18;;;31.10;99.30;;;;;;6119636;23;20336;-72
2023/09/11 11:28:42;;;;;;;18.05;7.40;;;31.10;99.20;;;;;;6118448;23;20014;-71
2023/09/11 11:31:10;;;;;;;11.75;5.90;;;31.20;99.40;;;;;;6120025;23;20068;-71
2023/09/11 11:33:40;;;;;;;13.35;7.15;;;31.30;99.30;;;;;;6070568;23;20024;-72
2023/09/11 11:36:11;;;;;;;15.45;7.60;;;31.30;98.90;;;;;;6119197;23;20441;-71
2023/09/11 11:38:38;;;;;;;9.05;5.40;;;31.30;99.10;;;;;;6092918;23;20018;-72
2023/09/11 11:41:04;;;;;;;11.20;7.03;;;31.40;98.70;;;;;;6120194;23;20022;-72
2023/09/11 11:43:31;;;;;;;11.55;6.32;;;31.30;98.80;;;;;;6119828;23;20729;-72
2023/09/11 11:45:57;;;;;;;11.80;7.00;;;31.30;99.00;;;;;;6119268;23;20021;-71
2023/09/11 11:48:22;;;;;;;9.60;6.07;;;31.40;98.60;;;;;;6120778;23;20365;-72
2023/09/11 11:50:49;;;;;;;10.70;6.90;;;31.40;98.40;;;;;;6118408;23;20014;-72
2023/09/11 11:53:16;;;;;;;14.10;6.85;;;31.30;97.60;;;;;;6119327;23;20018;-72
2023/09/11 11:55:42;;;;;;;14.48;5.53;;;31.30;98.00;;;;;;6093117;23;20064;-72
2023/09/11 11:58:09;;;;;;;6.43;5.65;;;31.30;98.00;;;;;;6119134;23;20014;-72
2023/09/11 12:00:35;;;;;;;10.15;5.43;;;31.30;97.90;;;;;;6117451;23;20010;-71
2023/09/11 12:03:04;;;;;;;9.43;5.80;;;31.40;98.20;;;;;;6093545;23;20025;-72
2023/09/11 12:05:30;;;;;;;15.80;5.93;;;31.30;97.80;;;;;;6093203;23;20025;-72
2023/09/11 12:07:56;;;;;;;9.43;5.03;;;31.30;97.40;;;;;;6093415;23;20021;-72
2023/09/11 12:10:21;;;;;;;5.97;4.57;;;31.30;97.50;;;;;;6118299;23;20067;-72
2023/09/11 12:12:47;;;;;;;8.70;4.50;;;31.30;97.10;;;;;;6092427;23;20461;-71
2023/09/11 12:15:13;;;;;;;9.32;4.43;;;31.20;97.70;;;;;;6119028;23;20090;-71
2023/09/11 12:17:46;;;;;;;5.93;3.33;;;31.30;97.80;;;;;;6119621;23;20052;-72
2023/09/11 12:20:13;;;;;;;4.85;3.28;;;31.40;97.00;;;;;;6118560;23;20014;-72
2023/09/11 12:22:40;;;;;;;6.97;3.40;;;31.30;96.60;;;;;;6093634;23;20018;-71
2023/09/11 12:25:06;;;;;;;12.52;4.15;;;31.30;96.70;;;;;;6093078;23;20018;-72
2023/09/11 12:27:34;;;;;;;9.82;3.20;;;31.40;96.80;;;;;;6091401;23;20022;-72
2023/09/11 12:29:59;;;;;;;8.88;3.15;;;31.40;96.30;;;;;;6093174;23;20103;-72